createdAt,value
2017-09-18T00:01:10.417Z,12.10
2017-09-18T00:03:42.810Z,12.00
2017-09-18T00:06:15.267Z,12.00
2017-09-18T00:08:47.689Z,12.00
2017-09-18T00:11:20.065Z,12.00
2017-09-18T00:13:52.402Z,12.00
2017-09-18T00:16:24.866Z,12.00
2017-09-18T00:18:57.579Z,11.90
2017-09-18T00:21:29.841Z,11.80
2017-09-18T00:24:03.081Z,11.60
2017-09-18T00:26:35.354Z,11.60
2017-09-18T00:29:07.656Z,11.70
2017-09-18T00:31:40.770Z,11.70
2017-09-18T00:34:12.980Z,11.60
2017-09-18T00:36:46.090Z,11.50
2017-09-18T00:39:18.333Z,11.50
2017-09-18T00:41:50.740Z,11.50
2017-09-18T00:44:23.794Z,11.40
2017-09-18T00:46:55.997Z,11.40
2017-09-18T00:49:29.059Z,11.40
2017-09-18T00:52:02.074Z,11.30
2017-09-18T00:54:34.293Z,11.30
2017-09-18T00:57:06.686Z,11.30
2017-09-18T00:59:38.993Z,11.30
2017-09-18T01:02:12.124Z,11.40
2017-09-18T01:04:45.166Z,11.40
2017-09-18T01:07:17.641Z,11.40
2017-09-18T01:09:49.958Z,11.40
2017-09-18T01:12:22.373Z,11.50
2017-09-18T01:14:54.615Z,11.50
2017-09-18T01:17:26.950Z,11.60
2017-09-18T01:19:59.312Z,11.50
2017-09-18T01:22:31.598Z,11.60
2017-09-18T01:25:04.047Z,11.50
2017-09-18T01:27:36.324Z,11.60
2017-09-18T01:30:08.730Z,11.70
2017-09-18T01:32:41.089Z,11.80
2017-09-18T01:35:13.541Z,11.70
2017-09-18T01:37:45.816Z,11.70
2017-09-18T01:40:18.138Z,11.70
2017-09-18T01:42:50.613Z,11.70
2017-09-18T01:45:23.898Z,11.70
2017-09-18T01:47:56.986Z,11.80
2017-09-18T01:50:29.181Z,11.70
2017-09-18T01:53:01.414Z,11.70
2017-09-18T01:55:33.663Z,11.50
2017-09-18T01:58:06.051Z,11.50
2017-09-18T02:00:38.214Z,11.40
2017-09-18T02:03:10.384Z,11.30
2017-09-18T02:05:42.594Z,11.20
2017-09-18T02:08:14.961Z,11.30
2017-09-18T02:10:47.225Z,11.20
2017-09-18T02:13:19.493Z,11.20
2017-09-18T02:15:51.718Z,11.10
2017-09-18T02:18:24.793Z,11.10
2017-09-18T02:20:57.153Z,11.10
2017-09-18T02:23:29.405Z,11.10
2017-09-18T02:26:01.714Z,11.10
2017-09-18T02:28:34.070Z,10.90
2017-09-18T02:31:06.325Z,10.90
2017-09-18T02:33:38.837Z,11.20
2017-09-18T02:36:11.147Z,11.10
2017-09-18T02:38:43.436Z,11.20
2017-09-18T02:41:16.576Z,11.10
2017-09-18T02:43:48.754Z,11.10
2017-09-18T02:46:21.093Z,11.00
2017-09-18T02:48:53.477Z,11.10
2017-09-18T02:51:25.770Z,11.10
2017-09-18T02:53:58.806Z,11.00
2017-09-18T02:56:31.032Z,10.90
2017-09-18T02:59:03.471Z,10.90
2017-09-18T03:01:35.789Z,10.90
2017-09-18T03:04:08.133Z,11.00
2017-09-18T03:06:41.361Z,10.70
2017-09-18T03:09:13.577Z,10.70
2017-09-18T03:11:46.033Z,10.60
2017-09-18T03:14:18.268Z,10.50
2017-09-18T03:16:50.650Z,10.50
2017-09-18T03:19:23.113Z,10.70
2017-09-18T03:21:55.441Z,10.60
2017-09-18T03:24:27.774Z,10.60
2017-09-18T03:27:00.246Z,10.60
2017-09-18T03:29:32.682Z,10.70
2017-09-18T03:32:05.034Z,10.70
2017-09-18T03:34:37.375Z,10.50
2017-09-18T03:37:09.805Z,10.40
2017-09-18T03:39:42.174Z,10.20
2017-09-18T03:42:14.545Z,10.10
2017-09-18T03:44:46.818Z,10.10
2017-09-18T03:47:19.027Z,10.10
2017-09-18T03:49:51.413Z,10.10
2017-09-18T03:52:23.689Z,10.10
2017-09-18T03:54:55.959Z,10.10
2017-09-18T03:57:28.189Z,10.10
2017-09-18T04:00:00.588Z,10.10
2017-09-18T04:02:33.558Z,10.00
2017-09-18T04:05:06.784Z,9.90
2017-09-18T04:07:39.118Z,9.80
2017-09-18T04:10:11.220Z,9.80
2017-09-18T04:12:43.592Z,9.80
2017-09-18T04:15:15.965Z,9.70
2017-09-18T04:17:48.330Z,9.80
2017-09-18T04:20:20.651Z,9.70
2017-09-18T04:22:53.004Z,9.70
2017-09-18T04:25:25.237Z,9.80
2017-09-18T04:27:57.500Z,9.70
2017-09-18T04:30:29.880Z,9.70
2017-09-18T04:33:02.176Z,9.70
2017-09-18T04:35:34.370Z,9.60
2017-09-18T04:38:06.749Z,9.50
2017-09-18T04:40:38.969Z,9.40
2017-09-18T04:43:11.186Z,9.40
2017-09-18T04:45:43.456Z,9.40
2017-09-18T04:48:16.558Z,9.20
2017-09-18T04:50:48.879Z,9.20
2017-09-18T04:53:21.222Z,9.20
2017-09-18T04:55:53.517Z,9.10
2017-09-18T04:58:25.657Z,9.20
2017-09-18T05:00:57.973Z,9.20
2017-09-18T05:03:31.073Z,9.20
2017-09-18T05:06:03.456Z,9.20
2017-09-18T05:08:35.771Z,9.30
2017-09-18T05:11:07.905Z,9.30
2017-09-18T05:13:40.113Z,9.30
2017-09-18T05:16:12.324Z,9.20
2017-09-18T05:18:44.721Z,9.30
2017-09-18T05:21:16.969Z,9.30
2017-09-18T05:23:49.344Z,9.30
2017-09-18T05:26:21.569Z,9.30
2017-09-18T05:28:54.755Z,9.40
2017-09-18T05:31:27.052Z,9.40
2017-09-18T05:33:59.333Z,9.40
2017-09-18T05:36:31.689Z,9.50
2017-09-18T05:39:03.966Z,9.50
2017-09-18T05:41:36.186Z,9.60
2017-09-18T05:44:08.433Z,9.60
2017-09-18T05:46:40.573Z,9.70
2017-09-18T05:49:12.946Z,9.80
2017-09-18T05:51:45.264Z,10.00
2017-09-18T05:54:17.798Z,10.00
2017-09-18T05:56:50.109Z,10.20
2017-09-18T05:59:22.521Z,10.40
2017-09-18T06:01:54.721Z,10.70
2017-09-18T06:04:27.824Z,11.70
2017-09-18T06:06:59.989Z,11.60
2017-09-18T06:09:32.219Z,12.30
2017-09-18T06:12:04.508Z,12.90
2017-09-18T06:14:36.776Z,12.90
2017-09-18T06:17:09.010Z,13.50
2017-09-18T06:19:41.368Z,13.40
2017-09-18T06:22:13.739Z,13.60
2017-09-18T06:24:46.226Z,13.50
2017-09-18T06:27:18.348Z,14.10
2017-09-18T06:29:51.369Z,12.50
2017-09-18T06:32:24.255Z,12.00
2017-09-18T06:34:56.477Z,11.90
2017-09-18T06:37:28.837Z,11.60
2017-09-18T06:40:01.188Z,11.50
2017-09-18T06:42:33.631Z,11.50
2017-09-18T06:45:06.061Z,11.70
2017-09-18T06:47:38.472Z,11.90
2017-09-18T06:50:10.817Z,12.40
2017-09-18T06:52:43.069Z,13.60
2017-09-18T06:55:16.133Z,16.30
2017-09-18T06:57:48.336Z,16.30
2017-09-18T07:00:20.827Z,17.10
2017-09-18T07:02:53.222Z,17.10
2017-09-18T07:05:25.569Z,17.00
2017-09-18T07:07:57.873Z,17.90
2017-09-18T07:10:30.198Z,18.50
2017-09-18T07:13:02.423Z,18.90
2017-09-18T07:15:34.567Z,19.30
2017-09-18T07:18:06.893Z,19.10
2017-09-18T07:20:39.444Z,19.60
2017-09-18T07:23:12.714Z,19.90
2017-09-18T07:25:45.272Z,19.80
2017-09-18T07:28:17.546Z,19.70
2017-09-18T07:30:49.923Z,19.50
2017-09-18T07:33:23.054Z,20.30
2017-09-18T07:35:55.212Z,20.30
2017-09-18T07:38:27.757Z,21.10
2017-09-18T07:41:00.074Z,22.40
2017-09-18T07:43:32.291Z,22.60
2017-09-18T07:46:07.076Z,23.60
2017-09-18T07:48:39.371Z,23.60
2017-09-18T07:51:11.767Z,24.00
2017-09-18T07:53:44.157Z,24.30
2017-09-18T07:56:16.338Z,24.10
2017-09-18T07:58:48.707Z,24.20
2017-09-18T08:01:21.105Z,23.40
2017-09-18T08:03:53.667Z,22.90
2017-09-18T08:06:26.039Z,22.50
2017-09-18T08:08:58.584Z,22.20
2017-09-18T08:11:30.870Z,21.30
2017-09-18T08:14:03.370Z,22.50
2017-09-18T08:16:35.657Z,23.00
2017-09-18T08:19:08.838Z,23.00
2017-09-18T08:21:41.011Z,22.60
2017-09-18T08:24:13.641Z,23.90
2017-09-18T08:26:45.958Z,24.20
2017-09-18T08:29:18.214Z,23.80
2017-09-18T08:31:50.605Z,24.30
2017-09-18T08:34:22.818Z,24.30
2017-09-18T08:36:55.098Z,23.60
2017-09-18T08:39:27.333Z,24.20
2017-09-18T08:41:59.686Z,23.30
2017-09-18T08:44:32.006Z,24.10
2017-09-18T08:47:04.382Z,23.80
2017-09-18T08:49:37.373Z,23.80
2017-09-18T08:52:09.657Z,23.80
2017-09-18T08:54:42.006Z,23.90
2017-09-18T08:57:14.893Z,24.30
2017-09-18T08:59:47.261Z,24.20
2017-09-18T09:02:19.541Z,23.10
2017-09-18T09:04:52.013Z,23.70
2017-09-18T09:07:24.305Z,24.00
2017-09-18T09:09:57.370Z,23.90
2017-09-18T09:12:29.812Z,23.80
2017-09-18T09:15:02.202Z,24.10
2017-09-18T09:17:34.546Z,24.60
2017-09-18T09:20:06.972Z,24.40
2017-09-18T09:22:39.386Z,25.30
2017-09-18T09:25:11.969Z,26.80
2017-09-18T09:27:44.344Z,27.20
2017-09-18T09:30:17.004Z,26.10
2017-09-18T09:32:49.922Z,26.20
2017-09-18T09:35:24.048Z,26.40
2017-09-18T09:38:06.984Z,26.40
2017-09-18T09:40:40.990Z,25.60
2017-09-18T09:43:17.193Z,25.60
2017-09-18T09:45:49.648Z,25.70
2017-09-18T09:48:22.057Z,26.20
2017-09-18T09:50:55.292Z,27.20
2017-09-18T09:53:27.636Z,27.20
2017-09-18T09:55:59.926Z,26.50
2017-09-18T09:58:32.473Z,25.50
2017-09-18T10:01:04.653Z,24.80
2017-09-18T10:03:36.813Z,25.50
2017-09-18T10:06:09.185Z,26.20
2017-09-18T10:08:41.620Z,25.20
2017-09-18T10:11:13.783Z,26.10
2017-09-18T10:13:46.085Z,26.30
2017-09-18T10:16:18.465Z,26.70
2017-09-18T10:18:50.685Z,27.30
2017-09-18T10:21:23.171Z,26.60
2017-09-18T10:23:55.569Z,26.00
2017-09-18T10:26:28.980Z,26.60
2017-09-18T10:29:01.298Z,25.90
2017-09-18T10:31:34.541Z,25.00
2017-09-18T10:34:06.924Z,25.00
2017-09-18T10:36:39.204Z,25.30
2017-09-18T10:39:11.597Z,25.30
2017-09-18T10:41:43.981Z,24.00
2017-09-18T10:44:16.493Z,23.10
2017-09-18T10:46:49.461Z,24.90
2017-09-18T10:49:21.771Z,24.90
2017-09-18T10:51:54.138Z,25.80
2017-09-18T10:54:26.596Z,25.60
2017-09-18T10:56:58.809Z,25.10
2017-09-18T10:59:31.230Z,24.00
2017-09-18T11:02:03.525Z,23.50
2017-09-18T11:04:36.540Z,22.80
2017-09-18T11:07:08.721Z,22.70
2017-09-18T11:09:40.957Z,24.20
2017-09-18T11:12:13.362Z,24.60
2017-09-18T11:14:45.753Z,25.40
2017-09-18T11:17:18.754Z,25.30
2017-09-18T11:19:50.924Z,25.30
2017-09-18T11:22:23.278Z,24.70
2017-09-18T11:24:56.608Z,24.60
2017-09-18T11:27:28.893Z,24.60
2017-09-18T11:30:01.269Z,23.90
2017-09-18T11:32:33.541Z,22.80
2017-09-18T11:35:05.826Z,23.00
2017-09-18T11:37:38.321Z,23.80
2017-09-18T11:40:10.721Z,25.20
2017-09-18T11:42:42.934Z,25.30
2017-09-18T11:45:15.362Z,25.20
2017-09-18T11:47:47.618Z,25.50
2017-09-18T11:50:19.943Z,25.90
2017-09-18T11:52:52.345Z,25.10
2017-09-18T11:55:24.553Z,25.90
2017-09-18T11:57:56.948Z,25.00
2017-09-18T12:00:29.273Z,25.30
2017-09-18T12:03:01.532Z,25.80
2017-09-18T12:05:33.816Z,25.00
2017-09-18T12:08:06.786Z,25.50
2017-09-18T12:10:39.302Z,25.50
2017-09-18T12:13:11.465Z,26.00
2017-09-18T12:15:43.802Z,26.60
2017-09-18T12:18:16.025Z,26.30
2017-09-18T12:20:49.048Z,26.50
2017-09-18T12:23:21.195Z,26.50
2017-09-18T12:25:54.356Z,25.60
2017-09-18T12:28:26.615Z,26.40
2017-09-18T12:30:58.981Z,26.00
2017-09-18T12:33:31.498Z,26.10
2017-09-18T12:36:04.489Z,25.40
2017-09-18T12:38:36.712Z,25.30
2017-09-18T12:41:09.057Z,25.70
2017-09-18T12:43:41.591Z,26.30
2017-09-18T12:46:13.954Z,25.20
2017-09-18T12:48:46.417Z,25.60
2017-09-18T12:51:19.722Z,25.70
2017-09-18T12:53:52.349Z,25.80
2017-09-18T12:56:24.700Z,24.30
2017-09-18T12:58:57.041Z,23.00
2017-09-18T13:01:30.280Z,21.90
2017-09-18T13:04:02.465Z,21.90
2017-09-18T13:06:34.862Z,23.00
2017-09-18T13:09:07.894Z,23.30
2017-09-18T13:11:40.421Z,23.30
2017-09-18T13:14:12.653Z,24.20
2017-09-18T13:16:45.280Z,24.70
2017-09-18T13:19:17.527Z,24.70
2017-09-18T13:21:49.830Z,25.30
2017-09-18T13:24:23.693Z,25.40
2017-09-18T13:26:56.445Z,25.00
2017-09-18T13:29:29.050Z,24.80
2017-09-18T13:32:01.465Z,24.50
2017-09-18T13:34:34.960Z,26.30
2017-09-18T13:37:08.407Z,26.70
2017-09-18T13:39:41.506Z,24.60
2017-09-18T13:42:14.457Z,24.60
2017-09-18T13:44:47.434Z,23.30
2017-09-18T13:47:21.569Z,22.60
2017-09-18T13:49:55.452Z,22.70
2017-09-18T13:52:28.675Z,23.20
2017-09-18T13:55:01.028Z,22.80
2017-09-18T13:57:33.405Z,23.30
2017-09-18T14:00:05.774Z,23.60
2017-09-18T14:02:38.105Z,23.60
2017-09-18T14:05:10.505Z,23.20
2017-09-18T14:07:42.918Z,23.30
2017-09-18T14:10:15.324Z,23.20
2017-09-18T14:12:47.778Z,23.90
2017-09-18T14:15:20.105Z,24.20
2017-09-18T14:17:52.562Z,24.50
2017-09-18T14:20:26.724Z,23.90
2017-09-18T14:22:59.217Z,23.80
2017-09-18T14:25:31.584Z,24.30
2017-09-18T14:28:03.927Z,23.00
2017-09-18T14:30:36.414Z,22.40
2017-09-18T14:33:08.868Z,22.50
2017-09-18T14:35:41.363Z,22.30
2017-09-18T14:38:14.398Z,22.60
2017-09-18T14:40:46.730Z,22.50
2017-09-18T14:43:19.721Z,22.30
2017-09-18T14:45:52.238Z,21.30
2017-09-18T14:48:24.484Z,21.00
2017-09-18T14:50:56.954Z,20.70
2017-09-18T14:53:29.370Z,20.30
2017-09-18T14:56:02.294Z,20.30
2017-09-18T14:58:37.646Z,19.90
2017-09-18T15:01:10.710Z,19.80
2017-09-18T15:03:43.135Z,19.80
2017-09-18T15:06:15.517Z,19.60
2017-09-18T15:08:47.917Z,19.60
2017-09-18T15:11:20.292Z,19.20
2017-09-18T15:13:52.655Z,19.10
2017-09-18T15:16:25.267Z,19.00
2017-09-18T15:18:58.066Z,18.90
2017-09-18T15:21:32.616Z,18.90
2017-09-18T15:24:08.518Z,18.80
2017-09-18T15:26:41.820Z,18.70
2017-09-18T15:29:16.922Z,18.40
2017-09-18T15:31:51.885Z,18.20
2017-09-18T15:34:24.115Z,18.20
2017-09-18T15:36:56.315Z,18.30
2017-09-18T15:39:30.364Z,18.30
2017-09-18T15:42:02.529Z,18.20
2017-09-18T15:44:34.704Z,18.20
2017-09-18T15:47:07.105Z,18.10
2017-09-18T15:49:40.256Z,17.80
2017-09-18T15:52:12.482Z,17.80
2017-09-18T15:54:45.583Z,17.70
2017-09-18T15:57:19.235Z,17.70
2017-09-18T15:59:53.068Z,17.70
2017-09-18T16:02:25.416Z,17.60
2017-09-18T16:04:57.906Z,17.50
2017-09-18T16:07:30.898Z,17.40
2017-09-18T16:10:03.305Z,17.30
2017-09-18T16:12:36.414Z,17.10
2017-09-18T16:15:08.930Z,17.10
2017-09-18T16:17:41.249Z,17.20
2017-09-18T16:20:13.669Z,17.10
2017-09-18T16:22:46.064Z,17.10
2017-09-18T16:25:18.418Z,17.00
2017-09-18T16:27:50.813Z,16.90
2017-09-18T16:30:23.052Z,16.80
2017-09-18T16:32:55.370Z,16.80
2017-09-18T16:35:27.507Z,16.70
2017-09-18T16:38:00.817Z,16.60
2017-09-18T16:40:33.266Z,16.50
2017-09-18T16:43:05.610Z,16.50
2017-09-18T16:45:38.473Z,16.40
2017-09-18T16:48:12.160Z,16.40
2017-09-18T16:50:44.779Z,16.30
2017-09-18T16:53:17.060Z,16.20
2017-09-18T16:55:49.298Z,16.10
2017-09-18T16:58:21.724Z,16.00
2017-09-18T17:00:54.015Z,15.90
2017-09-18T17:03:27.069Z,15.70
2017-09-18T17:05:59.276Z,15.70
2017-09-18T17:08:32.172Z,15.60
2017-09-18T17:11:04.638Z,15.50
2017-09-18T17:13:36.892Z,15.50
2017-09-18T17:16:09.097Z,15.40
2017-09-18T17:18:41.425Z,15.40
2017-09-18T17:21:13.764Z,15.30
2017-09-18T17:23:46.822Z,15.20
2017-09-18T17:26:19.174Z,15.20
2017-09-18T17:28:52.162Z,15.10
2017-09-18T17:31:24.575Z,15.10
2017-09-18T17:33:56.829Z,15.00
2017-09-18T17:36:30.045Z,15.00
2017-09-18T17:39:02.290Z,14.90
2017-09-18T17:41:35.265Z,15.00
2017-09-18T17:44:08.232Z,15.00
2017-09-18T17:46:41.525Z,14.90
2017-09-18T17:49:14.284Z,14.90
2017-09-18T17:51:47.067Z,14.80
2017-09-18T17:54:20.306Z,14.80
2017-09-18T17:56:52.808Z,14.70
2017-09-18T17:59:25.163Z,14.70
2017-09-18T18:01:58.177Z,14.70
2017-09-18T18:04:30.429Z,14.70
2017-09-18T18:07:02.898Z,14.80
2017-09-18T18:09:35.296Z,14.70
2017-09-18T18:12:07.768Z,14.60
2017-09-18T18:14:40.093Z,14.60
2017-09-18T18:17:13.004Z,14.50
2017-09-18T18:19:45.460Z,14.50
2017-09-18T18:22:18.908Z,14.60
2017-09-18T18:24:51.175Z,14.60
2017-09-18T18:27:24.333Z,14.50
2017-09-18T18:29:56.520Z,14.50
2017-09-18T18:32:28.907Z,14.50
2017-09-18T18:35:01.354Z,14.50
2017-09-18T18:37:33.641Z,14.40
2017-09-18T18:40:05.904Z,14.30
2017-09-18T18:42:38.421Z,14.30
2017-09-18T18:45:10.741Z,14.30
2017-09-18T18:47:43.020Z,14.20
2017-09-18T18:50:15.436Z,14.10
2017-09-18T18:52:47.945Z,14.10
2017-09-18T18:55:21.047Z,14.20
2017-09-18T18:57:53.213Z,14.10
2017-09-18T19:00:25.553Z,14.10
2017-09-18T19:02:58.721Z,14.20
2017-09-18T19:05:31.279Z,14.20
2017-09-18T19:08:03.581Z,14.20
2017-09-18T19:10:35.968Z,14.20
2017-09-18T19:13:08.414Z,14.00
2017-09-18T19:15:40.643Z,14.10
2017-09-18T19:18:13.151Z,14.10
2017-09-18T19:20:45.622Z,14.10
2017-09-18T19:23:18.265Z,14.10
2017-09-18T19:25:51.076Z,14.00
2017-09-18T19:28:23.470Z,14.00
2017-09-18T19:30:55.743Z,13.80
2017-09-18T19:33:28.098Z,13.80
2017-09-18T19:36:00.741Z,13.70
2017-09-18T19:38:33.241Z,13.70
2017-09-18T19:41:05.504Z,13.70
2017-09-18T19:43:37.982Z,13.60
2017-09-18T19:46:10.236Z,13.60
2017-09-18T19:48:42.636Z,13.40
2017-09-18T19:51:14.935Z,13.40
2017-09-18T19:53:47.477Z,13.40
2017-09-18T19:56:19.724Z,13.40
2017-09-18T19:58:52.222Z,13.20
2017-09-18T20:01:24.586Z,13.20
2017-09-18T20:03:56.830Z,13.10
2017-09-18T20:06:29.260Z,13.00
2017-09-18T20:09:01.793Z,13.00
2017-09-18T20:11:34.317Z,12.80
2017-09-18T20:14:06.640Z,13.00
2017-09-18T20:16:39.105Z,12.80
2017-09-18T20:19:11.796Z,12.70
2017-09-18T20:21:44.731Z,12.60
2017-09-18T20:24:17.574Z,12.50
2017-09-18T20:26:50.689Z,12.80
2017-09-18T20:29:22.962Z,12.70
2017-09-18T20:31:55.377Z,12.70
2017-09-18T20:34:27.944Z,12.60
2017-09-18T20:37:01.152Z,12.50
2017-09-18T20:39:33.394Z,12.50
2017-09-18T20:42:05.602Z,12.40
2017-09-18T20:44:37.902Z,12.40
2017-09-18T20:47:10.909Z,12.40
2017-09-18T20:49:43.231Z,12.30
2017-09-18T20:52:16.311Z,12.40
2017-09-18T20:54:49.429Z,12.50
2017-09-18T20:57:22.506Z,12.50
2017-09-18T20:59:54.989Z,12.50
2017-09-18T21:02:27.377Z,12.50
2017-09-18T21:05:00.056Z,12.30
2017-09-18T21:07:32.462Z,12.40
2017-09-18T21:10:04.863Z,12.30
2017-09-18T21:12:37.584Z,12.40
2017-09-18T21:15:10.402Z,12.30
2017-09-18T21:17:43.150Z,12.20
2017-09-18T21:20:15.513Z,12.20
2017-09-18T21:22:47.785Z,12.10
2017-09-18T21:25:19.997Z,12.00
2017-09-18T21:27:52.535Z,11.90
2017-09-18T21:30:25.513Z,11.80
2017-09-18T21:32:57.810Z,11.80
2017-09-18T21:35:30.040Z,11.80
2017-09-18T21:38:02.424Z,11.70
2017-09-18T21:40:35.337Z,11.70
2017-09-18T21:43:08.396Z,11.60
2017-09-18T21:45:40.802Z,11.60
2017-09-18T21:48:13.528Z,11.60
2017-09-18T21:50:46.041Z,11.50
2017-09-18T21:53:18.620Z,11.50
2017-09-18T21:55:51.579Z,11.40
2017-09-18T21:58:24.334Z,11.30
2017-09-18T22:00:57.046Z,11.30
2017-09-18T22:03:29.297Z,11.20
2017-09-18T22:06:01.622Z,11.30
2017-09-18T22:08:34.718Z,11.40
2017-09-18T22:11:07.017Z,11.30
2017-09-18T22:13:40.004Z,11.40
2017-09-18T22:16:12.266Z,11.30
2017-09-18T22:18:44.577Z,11.30
2017-09-18T22:21:16.781Z,11.20
2017-09-18T22:23:48.939Z,11.20
2017-09-18T22:26:22.198Z,11.10
2017-09-18T22:28:55.218Z,11.10
2017-09-18T22:31:27.520Z,11.00
2017-09-18T22:33:59.821Z,11.00
2017-09-18T22:36:32.127Z,11.00
2017-09-18T22:39:04.439Z,10.90
2017-09-18T22:41:37.398Z,10.90
2017-09-18T22:44:09.542Z,10.90
2017-09-18T22:46:41.959Z,11.00
2017-09-18T22:49:14.313Z,11.00
2017-09-18T22:51:46.693Z,10.90
2017-09-18T22:54:19.001Z,10.90
2017-09-18T22:56:51.299Z,10.80
2017-09-18T22:59:23.509Z,10.80
2017-09-18T23:01:56.186Z,10.80
2017-09-18T23:04:28.638Z,11.20
2017-09-18T23:07:00.894Z,11.40
2017-09-18T23:09:33.209Z,11.70
2017-09-18T23:12:05.668Z,11.50
2017-09-18T23:14:38.086Z,11.20
2017-09-18T23:17:10.447Z,11.10
2017-09-18T23:19:42.716Z,11.00
2017-09-18T23:22:15.087Z,10.90
2017-09-18T23:24:48.249Z,10.70
2017-09-18T23:27:20.527Z,10.70
2017-09-18T23:29:52.771Z,10.70
2017-09-18T23:32:25.698Z,10.60
2017-09-18T23:34:57.943Z,10.60
2017-09-18T23:37:31.080Z,10.60
2017-09-18T23:40:03.358Z,10.60
2017-09-18T23:42:35.726Z,10.60
2017-09-18T23:45:08.135Z,10.50
2017-09-18T23:47:40.444Z,10.60
2017-09-18T23:50:12.914Z,10.60
2017-09-18T23:52:45.161Z,10.60
2017-09-18T23:55:17.622Z,10.50
2017-09-18T23:57:49.983Z,10.50
